Weather at Kafr el-Sheikh Heliport

Public forecast

Using degrees Celsius for public forecast. Weather courtesy of forecast.io.

Closest aviation weather report (METAR) to Kafr el-Sheikh Heliport

Closest report is Sphinx International Airport, 59.6 nm (110.4 km) S.

2024/06/21 16:00 (retrieved 55 minutes ago)

HESX 211600Z 35010KT CAVOK 36/12 Q1006 NOSIG

Closest aviation forecast (TAF) to Kafr el-Sheikh Heliport

Closest forecast is Sphinx International Airport, 59.6 nm (110.4 km) S.

2024/06/21 12:00 (retrieved 5 hours ago)

TAF HESX 211100Z 2112/2218 30012KT CAVOK